createdAt,value
2019-03-21T00:01:45.300Z,6.70
2019-03-21T00:04:15.212Z,6.80
2019-03-21T00:06:44.923Z,6.80
2019-03-21T00:09:16.496Z,6.80
2019-03-21T00:11:59.795Z,6.70
2019-03-21T00:14:36.239Z,6.60
2019-03-21T00:17:06.336Z,6.50
2019-03-21T00:19:36.100Z,6.40
2019-03-21T00:22:06.168Z,6.40
2019-03-21T00:24:37.228Z,6.40
2019-03-21T00:27:08.164Z,6.50
2019-03-21T00:29:37.799Z,6.40
2019-03-21T00:32:07.468Z,6.40
2019-03-21T00:34:37.062Z,6.40
2019-03-21T00:37:06.761Z,6.40
2019-03-21T00:39:36.425Z,6.50
2019-03-21T00:42:09.163Z,6.50
2019-03-21T00:44:38.870Z,6.60
2019-03-21T00:47:09.072Z,6.60
2019-03-21T00:49:38.644Z,6.70
2019-03-21T00:52:08.387Z,6.70
2019-03-21T00:54:38.276Z,6.70
2019-03-21T00:57:07.888Z,6.70
2019-03-21T00:59:39.012Z,6.70
2019-03-21T01:02:08.595Z,6.70
2019-03-21T01:04:38.184Z,6.70
2019-03-21T01:07:08.124Z,6.70
2019-03-21T01:09:38.396Z,6.70
2019-03-21T01:12:09.120Z,6.60
2019-03-21T01:14:40.120Z,6.60
2019-03-21T01:17:09.807Z,6.60
2019-03-21T01:19:39.662Z,6.60
2019-03-21T01:22:09.536Z,6.60
2019-03-21T01:24:39.348Z,6.60
2019-03-21T01:27:09.908Z,6.60
2019-03-21T01:29:39.686Z,6.60
2019-03-21T01:32:24.244Z,6.60
2019-03-21T01:34:53.754Z,6.60
2019-03-21T01:37:23.541Z,6.60
2019-03-21T01:39:53.147Z,6.60
2019-03-21T01:42:22.756Z,6.60
2019-03-21T01:44:52.308Z,6.50
2019-03-21T01:47:21.859Z,6.50
2019-03-21T01:49:51.720Z,6.40
2019-03-21T01:52:21.267Z,6.30
2019-03-21T01:54:50.830Z,6.30
2019-03-21T01:57:20.915Z,6.30
2019-03-21T01:59:51.460Z,6.30
2019-03-21T02:02:22.774Z,6.30
2019-03-21T02:04:52.660Z,6.20
2019-03-21T02:07:25.211Z,6.20
2019-03-21T02:09:55.000Z,6.20
2019-03-21T02:12:24.852Z,6.10
2019-03-21T02:14:54.612Z,6.10
2019-03-21T02:17:24.478Z,6.00
2019-03-21T02:19:56.285Z,5.90
2019-03-21T02:22:26.099Z,5.90
2019-03-21T02:24:55.994Z,5.90
2019-03-21T02:27:25.572Z,6.00
2019-03-21T02:29:55.265Z,6.00
2019-03-21T02:32:24.953Z,5.90
2019-03-21T02:34:55.647Z,5.80
2019-03-21T02:37:25.417Z,5.80
2019-03-21T02:39:59.770Z,5.70
2019-03-21T02:42:26.980Z,5.70
2019-03-21T02:45:07.815Z,5.70
2019-03-21T02:47:28.201Z,5.80
2019-03-21T02:49:58.818Z,5.70
2019-03-21T02:52:28.599Z,5.70
2019-03-21T02:54:58.328Z,5.70
2019-03-21T02:57:28.049Z,5.80
2019-03-21T02:59:57.609Z,5.80
2019-03-21T03:02:27.241Z,5.70
2019-03-21T03:04:57.129Z,5.60
2019-03-21T03:07:26.921Z,5.70
2019-03-21T03:09:56.817Z,5.60
2019-03-21T03:12:27.208Z,5.50
2019-03-21T03:14:56.805Z,5.60
2019-03-21T03:17:26.997Z,5.50
2019-03-21T03:19:57.030Z,5.50
2019-03-21T03:22:26.811Z,5.40
2019-03-21T03:24:56.699Z,5.40
2019-03-21T03:27:26.320Z,5.40
2019-03-21T03:29:55.957Z,5.40
2019-03-21T03:32:25.467Z,5.40
2019-03-21T03:34:55.687Z,5.30
2019-03-21T03:37:25.233Z,5.40
2019-03-21T03:39:55.321Z,5.30
2019-03-21T03:42:25.530Z,5.30
2019-03-21T03:44:55.668Z,5.30
2019-03-21T03:47:26.355Z,5.40
2019-03-21T03:49:56.404Z,5.30
2019-03-21T03:52:26.742Z,5.30
2019-03-21T03:54:59.428Z,5.30
2019-03-21T03:57:29.562Z,5.30
2019-03-21T04:00:02.572Z,5.40
2019-03-21T04:02:33.916Z,5.40
2019-03-21T04:05:04.281Z,5.40
2019-03-21T04:07:34.189Z,5.40
2019-03-21T04:12:40.477Z,5.40
2019-03-21T04:15:11.620Z,5.30
2019-03-21T04:17:41.847Z,5.30
2019-03-21T04:20:13.588Z,5.40
2019-03-21T04:22:43.486Z,5.40
2019-03-21T04:25:16.677Z,5.50
2019-03-21T04:27:46.632Z,5.50
2019-03-21T04:30:16.617Z,5.40
2019-03-21T04:32:47.141Z,5.50
2019-03-21T04:35:17.938Z,5.50
2019-03-21T04:37:47.620Z,5.40
2019-03-21T04:40:17.204Z,5.50
2019-03-21T04:42:47.644Z,5.50
2019-03-21T04:45:18.809Z,5.50
2019-03-21T04:47:48.747Z,5.50
2019-03-21T04:50:21.014Z,5.60
2019-03-21T04:52:50.658Z,5.60
2019-03-21T04:55:20.915Z,5.60
2019-03-21T04:57:50.821Z,5.60
2019-03-21T05:00:25.647Z,5.50
2019-03-21T05:02:57.715Z,5.50
2019-03-21T05:05:27.662Z,5.30
2019-03-21T05:07:57.311Z,5.40
2019-03-21T05:10:26.983Z,5.30
2019-03-21T05:12:56.843Z,5.20
2019-03-21T05:15:31.936Z,5.10
2019-03-21T05:18:05.776Z,5.00
2019-03-21T05:20:35.876Z,5.00
2019-03-21T05:23:05.862Z,5.00
2019-03-21T05:25:35.860Z,4.90
2019-03-21T05:28:05.436Z,4.90
2019-03-21T05:30:41.468Z,4.90
2019-03-21T05:33:11.308Z,5.00
2019-03-21T05:35:41.765Z,5.00
2019-03-21T05:38:11.801Z,4.90
2019-03-21T05:40:41.699Z,4.90
2019-03-21T05:43:17.916Z,4.90
2019-03-21T05:45:47.827Z,4.90
2019-03-21T05:48:17.608Z,5.10
2019-03-21T05:50:47.191Z,5.20
2019-03-21T05:53:16.816Z,5.20
2019-03-21T05:55:46.852Z,5.10
2019-03-21T05:58:17.653Z,5.10
2019-03-21T06:00:47.515Z,5.20
2019-03-21T06:03:22.834Z,5.10
2019-03-21T06:05:56.197Z,5.20
2019-03-21T06:08:29.360Z,5.30
2019-03-21T06:10:59.176Z,5.40
2019-03-21T06:13:29.744Z,5.60
2019-03-21T06:16:07.024Z,5.70
2019-03-21T06:18:50.656Z,5.70
2019-03-21T06:21:48.184Z,5.80
2019-03-21T06:24:56.038Z,5.90
2019-03-21T06:27:33.528Z,6.10
2019-03-21T06:30:05.492Z,6.50
2019-03-21T06:32:36.223Z,6.80
2019-03-21T06:35:09.688Z,7.00
2019-03-21T06:37:39.336Z,7.20
2019-03-21T06:40:09.360Z,7.40
2019-03-21T06:42:39.213Z,7.50
2019-03-21T06:45:08.880Z,7.60
2019-03-21T06:47:40.641Z,7.90
2019-03-21T06:50:10.297Z,8.00
2019-03-21T06:52:40.827Z,8.20
2019-03-21T06:55:10.504Z,8.30
2019-03-21T07:00:16.338Z,8.70
2019-03-21T07:02:46.232Z,9.10
2019-03-21T07:08:05.028Z,9.70
2019-03-21T07:10:34.905Z,9.70
2019-03-21T07:13:04.569Z,10.10
2019-03-21T07:15:34.524Z,10.20
2019-03-21T07:18:04.268Z,10.40
2019-03-21T07:20:34.644Z,10.80
2019-03-21T07:23:04.436Z,11.00
2019-03-21T07:25:34.884Z,10.90
2019-03-21T07:28:04.800Z,10.90
2019-03-21T07:30:34.592Z,11.10
2019-03-21T07:33:04.676Z,11.00
2019-03-21T07:35:34.607Z,10.90
2019-03-21T07:38:04.487Z,11.20
2019-03-21T07:40:34.624Z,11.40
2019-03-21T07:43:04.652Z,11.50
2019-03-21T07:45:36.185Z,11.50
2019-03-21T07:48:06.224Z,11.80
2019-03-21T07:50:35.890Z,11.70
2019-03-21T07:53:05.793Z,11.70
2019-03-21T07:55:35.641Z,11.70
2019-03-21T07:58:06.352Z,11.60
2019-03-21T08:00:35.938Z,11.80
2019-03-21T08:03:05.644Z,12.00
2019-03-21T08:05:40.127Z,11.80
2019-03-21T08:08:06.991Z,11.80
2019-03-21T08:10:36.984Z,12.00
2019-03-21T08:13:07.160Z,12.10
2019-03-21T08:15:38.031Z,12.20
2019-03-21T08:18:08.729Z,12.10
2019-03-21T08:20:39.452Z,12.20
2019-03-21T08:23:09.520Z,12.40
2019-03-21T08:25:43.826Z,12.40
2019-03-21T08:28:14.097Z,12.40
2019-03-21T08:31:28.628Z,12.40
2019-03-21T08:33:58.794Z,12.40
2019-03-21T08:36:28.735Z,12.60
2019-03-21T08:38:58.408Z,12.90
2019-03-21T08:41:28.119Z,13.20
2019-03-21T08:43:57.772Z,13.40
2019-03-21T08:46:27.382Z,13.30
2019-03-21T08:48:57.288Z,13.40
2019-03-21T08:51:26.863Z,13.30
2019-03-21T08:53:56.644Z,13.30
2019-03-21T08:56:26.324Z,13.20
2019-03-21T08:58:56.004Z,13.20
2019-03-21T09:01:25.615Z,13.70
2019-03-21T09:03:55.264Z,14.40
2019-03-21T09:06:24.992Z,14.30
2019-03-21T09:08:54.569Z,14.20
2019-03-21T09:11:24.492Z,13.90
2019-03-21T09:13:54.720Z,14.10
2019-03-21T09:16:24.708Z,14.10
2019-03-21T09:18:54.728Z,13.90
2019-03-21T09:21:24.721Z,13.50
2019-03-21T09:23:54.925Z,13.60
2019-03-21T09:26:25.394Z,13.80
2019-03-21T09:28:55.349Z,14.00
2019-03-21T09:31:25.093Z,14.10
2019-03-21T09:33:55.008Z,14.30
2019-03-21T09:36:24.622Z,14.50
2019-03-21T09:38:54.464Z,14.60
2019-03-21T09:41:26.359Z,14.70
2019-03-21T09:43:56.274Z,14.70
2019-03-21T09:46:26.504Z,14.70
2019-03-21T09:48:56.068Z,14.90
2019-03-21T09:51:30.916Z,14.90
2019-03-21T09:54:08.922Z,15.10
2019-03-21T09:56:29.232Z,15.20
2019-03-21T09:58:59.600Z,15.50
2019-03-21T10:01:29.565Z,15.40
2019-03-21T10:04:00.172Z,15.20
2019-03-21T10:06:31.091Z,15.40
2019-03-21T10:09:00.760Z,15.60
2019-03-21T10:11:34.432Z,15.80
2019-03-21T10:14:04.558Z,16.10
2019-03-21T10:16:35.412Z,15.90
2019-03-21T10:19:05.228Z,15.80
2019-03-21T10:21:43.145Z,15.90
2019-03-21T10:24:06.456Z,16.10
2019-03-21T10:26:36.599Z,16.20
2019-03-21T10:29:08.066Z,16.10
2019-03-21T10:31:37.988Z,16.20
2019-03-21T10:34:07.578Z,16.40
2019-03-21T10:36:37.316Z,16.60
2019-03-21T10:41:43.729Z,16.70
2019-03-21T10:44:13.404Z,16.70
2019-03-21T10:46:45.073Z,16.80
2019-03-21T10:49:14.921Z,17.00
2019-03-21T10:51:54.479Z,16.80
2019-03-21T10:56:52.288Z,17.00
2019-03-21T10:59:21.895Z,17.10
2019-03-21T11:01:51.578Z,16.90
2019-03-21T11:04:21.461Z,16.50
2019-03-21T11:07:00.300Z,16.40
2019-03-21T11:12:06.120Z,16.60
2019-03-21T11:14:35.687Z,16.70
2019-03-21T11:17:05.308Z,16.70
2019-03-21T11:19:35.096Z,16.70
2019-03-21T11:22:06.510Z,16.70
2019-03-21T11:24:36.533Z,16.60
2019-03-21T11:27:06.763Z,16.70
2019-03-21T11:29:36.580Z,16.80
2019-03-21T11:32:06.572Z,16.80
2019-03-21T11:34:36.112Z,17.00
2019-03-21T11:37:06.329Z,17.00
2019-03-21T11:39:36.280Z,17.20
2019-03-21T11:42:05.947Z,17.30
2019-03-21T11:44:35.631Z,17.30
2019-03-21T11:47:05.209Z,17.30
2019-03-21T11:49:34.875Z,17.50
2019-03-21T11:52:05.312Z,17.60
2019-03-21T11:54:36.524Z,17.40
2019-03-21T11:57:06.158Z,17.60
2019-03-21T11:59:51.231Z,17.60
2019-03-21T12:02:10.876Z,17.40
2019-03-21T12:04:41.092Z,17.30
2019-03-21T12:07:12.492Z,17.20
2019-03-21T12:09:42.171Z,17.40
2019-03-21T12:12:11.798Z,17.70
2019-03-21T12:14:41.932Z,17.90
2019-03-21T12:17:12.945Z,17.80
2019-03-21T12:19:42.930Z,17.40
2019-03-21T12:22:12.536Z,17.50
2019-03-21T12:24:44.068Z,17.50
2019-03-21T12:27:13.761Z,17.70
2019-03-21T12:29:45.389Z,17.60
2019-03-21T12:32:15.000Z,17.40
2019-03-21T12:34:44.908Z,17.70
2019-03-21T12:37:14.839Z,18.00
2019-03-21T12:39:44.662Z,18.10
2019-03-21T12:42:15.920Z,18.10
2019-03-21T12:44:45.788Z,18.10
2019-03-21T12:47:16.204Z,17.90
2019-03-21T12:49:45.801Z,18.00
2019-03-21T12:52:15.638Z,18.20
2019-03-21T12:54:46.659Z,18.20
2019-03-21T12:57:16.504Z,18.30
2019-03-21T12:59:46.212Z,18.30
2019-03-21T13:02:15.873Z,18.20
2019-03-21T13:04:46.816Z,18.10
2019-03-21T13:07:18.166Z,18.00
2019-03-21T13:12:23.189Z,17.90
2019-03-21T13:14:52.853Z,17.90
2019-03-21T13:17:22.512Z,17.90
2019-03-21T13:22:28.785Z,17.70
2019-03-21T13:25:02.481Z,17.60
2019-03-21T13:27:32.179Z,17.60
2019-03-21T13:30:03.562Z,17.60
2019-03-21T13:32:33.285Z,17.70
2019-03-21T13:35:02.877Z,17.70
2019-03-21T13:37:32.544Z,17.70
2019-03-21T13:40:04.446Z,17.80
2019-03-21T13:42:34.448Z,17.90
2019-03-21T13:45:04.384Z,18.00
2019-03-21T13:47:34.252Z,18.00
2019-03-21T13:50:04.257Z,17.80
2019-03-21T13:52:34.444Z,17.80
2019-03-21T13:55:04.441Z,17.50
2019-03-21T13:57:34.332Z,17.60
2019-03-21T14:00:04.433Z,17.90
2019-03-21T14:02:34.416Z,18.10
2019-03-21T14:05:04.676Z,18.10
2019-03-21T14:07:35.628Z,18.20
2019-03-21T14:10:06.192Z,18.00
2019-03-21T14:12:36.057Z,18.10
2019-03-21T14:17:42.238Z,17.90
2019-03-21T14:20:15.476Z,17.90
2019-03-21T14:22:45.296Z,18.00
2019-03-21T14:25:16.416Z,18.00
2019-03-21T14:27:46.036Z,17.90
2019-03-21T14:30:16.435Z,17.80
2019-03-21T14:32:46.211Z,17.80
2019-03-21T14:35:17.327Z,17.70
2019-03-21T14:37:53.464Z,17.50
2019-03-21T14:40:23.345Z,17.50
2019-03-21T14:42:53.592Z,17.70
2019-03-21T14:45:24.333Z,17.70
2019-03-21T14:47:56.049Z,17.90
2019-03-21T14:50:25.776Z,17.80
2019-03-21T14:52:55.360Z,17.70
2019-03-21T14:55:25.172Z,17.70
2019-03-21T14:57:54.953Z,17.80
2019-03-21T15:00:24.921Z,17.60
2019-03-21T15:02:55.372Z,17.70
2019-03-21T15:05:25.544Z,17.60
2019-03-21T15:07:55.148Z,17.60
2019-03-21T15:10:25.092Z,17.40
2019-03-21T15:12:55.068Z,17.40
2019-03-21T15:15:25.056Z,17.40
2019-03-21T15:17:54.742Z,17.40
2019-03-21T15:20:24.335Z,17.50
2019-03-21T15:22:53.975Z,17.40
2019-03-21T15:25:23.862Z,17.30
2019-03-21T15:27:53.756Z,17.30
2019-03-21T15:30:23.745Z,17.20
2019-03-21T15:32:54.673Z,17.20
2019-03-21T15:35:25.492Z,17.20
2019-03-21T15:37:55.154Z,17.20
2019-03-21T15:40:25.137Z,17.20
2019-03-21T15:42:56.882Z,17.20
2019-03-21T15:45:26.629Z,17.20
2019-03-21T15:47:57.936Z,17.10
2019-03-21T15:50:37.346Z,17.00
2019-03-21T15:53:06.716Z,17.00
2019-03-21T15:55:36.412Z,17.00
2019-03-21T15:58:06.132Z,17.00
2019-03-21T16:00:40.157Z,17.00
2019-03-21T16:03:10.383Z,16.90
2019-03-21T16:05:41.228Z,16.90
2019-03-21T16:08:11.084Z,16.90
2019-03-21T16:10:40.936Z,16.80
2019-03-21T16:13:10.756Z,16.80
2019-03-21T16:15:40.352Z,16.80
2019-03-21T16:18:10.334Z,16.80
2019-03-21T16:20:40.253Z,16.70
2019-03-21T16:23:10.222Z,16.60
2019-03-21T16:25:39.872Z,16.60
2019-03-21T16:28:09.745Z,16.60
2019-03-21T16:30:39.448Z,16.60
2019-03-21T16:33:10.104Z,16.50
2019-03-21T16:35:39.749Z,16.50
2019-03-21T16:38:09.671Z,16.50
2019-03-21T16:40:39.308Z,16.50
2019-03-21T16:43:08.918Z,16.50
2019-03-21T16:45:38.569Z,16.40
2019-03-21T16:48:09.364Z,16.40
2019-03-21T16:50:39.498Z,16.30
2019-03-21T16:53:09.293Z,16.20
2019-03-21T16:55:39.248Z,16.20
2019-03-21T16:58:08.962Z,16.20
2019-03-21T17:00:39.460Z,16.10
2019-03-21T17:03:09.233Z,16.10
2019-03-21T17:05:39.644Z,16.10
2019-03-21T17:08:11.608Z,16.10
2019-03-21T17:10:40.799Z,16.00
2019-03-21T17:13:10.584Z,16.00
2019-03-21T17:15:40.521Z,15.90
2019-03-21T17:18:10.594Z,15.80
2019-03-21T17:20:40.317Z,15.90
2019-03-21T17:23:10.717Z,15.80
2019-03-21T17:25:40.634Z,15.70
2019-03-21T17:28:10.685Z,15.60
2019-03-21T17:30:41.081Z,15.60
2019-03-21T17:33:11.383Z,15.50
2019-03-21T17:35:41.384Z,15.50
2019-03-21T17:38:11.073Z,15.70
2019-03-21T17:40:41.122Z,15.70
2019-03-21T17:43:11.522Z,15.70
2019-03-21T17:45:41.216Z,15.60
2019-03-21T17:48:11.108Z,15.50
2019-03-21T17:50:40.696Z,15.40
2019-03-21T17:53:10.280Z,15.20
2019-03-21T17:55:39.993Z,15.10
2019-03-21T17:58:09.896Z,15.00
2019-03-21T18:03:14.708Z,14.80
2019-03-21T18:05:44.755Z,14.70
2019-03-21T18:08:14.386Z,14.70
2019-03-21T18:10:43.994Z,14.70
2019-03-21T18:13:13.624Z,14.60
2019-03-21T18:15:43.424Z,14.50
2019-03-21T18:18:13.136Z,14.50
2019-03-21T18:20:43.048Z,14.40
2019-03-21T18:23:12.660Z,14.30
2019-03-21T18:25:42.189Z,14.30
2019-03-21T18:28:11.804Z,14.30
2019-03-21T18:30:45.544Z,14.20
2019-03-21T18:33:15.504Z,14.00
2019-03-21T18:35:46.952Z,13.90
2019-03-21T18:38:17.012Z,13.70
2019-03-21T18:40:46.656Z,13.60
2019-03-21T18:43:16.480Z,13.60
2019-03-21T18:45:46.385Z,13.50
2019-03-21T18:48:16.276Z,13.40
2019-03-21T18:50:46.632Z,13.40
2019-03-21T18:53:17.120Z,13.30
2019-03-21T18:55:46.724Z,13.10
2019-03-21T18:58:16.381Z,13.00
2019-03-21T19:00:46.224Z,13.00
2019-03-21T19:03:19.472Z,13.00
2019-03-21T19:05:49.123Z,12.90
2019-03-21T19:08:19.184Z,13.00
2019-03-21T19:10:48.926Z,13.00
2019-03-21T19:13:18.604Z,13.00
2019-03-21T19:15:48.734Z,13.00
2019-03-21T19:18:18.676Z,13.00
2019-03-21T19:20:48.236Z,13.00
2019-03-21T19:23:17.984Z,13.00
2019-03-21T19:25:47.696Z,12.90
2019-03-21T19:28:18.528Z,12.80
2019-03-21T19:30:48.164Z,12.80
2019-03-21T19:33:18.462Z,12.70
2019-03-21T19:35:48.084Z,12.60
2019-03-21T19:38:18.387Z,12.50
2019-03-21T19:40:47.921Z,12.40
2019-03-21T19:43:17.869Z,12.30
2019-03-21T19:45:48.116Z,12.20
2019-03-21T19:48:18.007Z,12.10
2019-03-21T19:50:47.936Z,12.00
2019-03-21T19:53:17.517Z,12.00
2019-03-21T19:55:47.660Z,11.80
2019-03-21T19:58:18.752Z,11.70
2019-03-21T20:00:48.425Z,11.70
2019-03-21T20:03:18.039Z,11.60
2019-03-21T20:05:59.752Z,11.50
2019-03-21T20:08:20.452Z,11.40
2019-03-21T20:10:50.316Z,11.40
2019-03-21T20:13:21.680Z,11.40
2019-03-21T20:15:51.268Z,11.30
2019-03-21T20:18:21.000Z,11.30
2019-03-21T20:20:50.919Z,11.20
2019-03-21T20:23:20.596Z,11.10
2019-03-21T20:25:50.288Z,11.00
2019-03-21T20:28:20.189Z,11.00
2019-03-21T20:30:49.924Z,10.90
2019-03-21T20:33:20.199Z,10.90
2019-03-21T20:35:50.628Z,10.90
2019-03-21T20:38:20.568Z,10.90
2019-03-21T20:40:50.132Z,10.90
2019-03-21T20:43:19.895Z,10.90
2019-03-21T20:45:49.515Z,10.80
2019-03-21T20:48:28.991Z,10.70
2019-03-21T20:50:58.873Z,10.60
2019-03-21T20:53:28.547Z,10.50
2019-03-21T20:55:58.923Z,10.60
2019-03-21T20:58:28.909Z,10.50
2019-03-21T21:00:59.308Z,10.40
2019-03-21T21:03:31.048Z,10.50
2019-03-21T21:06:00.968Z,10.40
2019-03-21T21:08:31.847Z,10.40
2019-03-21T21:11:01.762Z,10.30
2019-03-21T21:13:31.765Z,10.30
2019-03-21T21:16:01.696Z,10.20
2019-03-21T21:18:31.594Z,10.20
2019-03-21T21:21:01.107Z,10.20
2019-03-21T21:23:30.787Z,10.20
2019-03-21T21:26:05.852Z,10.20
2019-03-21T21:28:33.343Z,10.10
2019-03-21T21:31:04.528Z,10.00
2019-03-21T21:33:36.364Z,10.00
2019-03-21T21:36:05.988Z,10.00
2019-03-21T21:38:35.729Z,10.00
2019-03-21T21:41:05.676Z,9.90
2019-03-21T21:43:35.451Z,9.90
2019-03-21T21:46:05.856Z,9.90
2019-03-21T21:48:35.507Z,9.80
2019-03-21T21:51:05.453Z,9.70
2019-03-21T21:53:35.465Z,9.70
2019-03-21T21:56:16.971Z,9.70
2019-03-21T21:58:37.180Z,9.60
2019-03-21T22:01:06.817Z,9.60
2019-03-21T22:03:36.766Z,9.60
2019-03-21T22:06:06.428Z,9.60
2019-03-21T22:08:36.407Z,9.70
2019-03-21T22:11:10.340Z,9.60
2019-03-21T22:13:47.044Z,9.60
2019-03-21T22:16:16.744Z,9.60
2019-03-21T22:18:46.563Z,9.60
2019-03-21T22:21:16.489Z,9.50
2019-03-21T22:23:46.118Z,9.50
2019-03-21T22:26:16.041Z,9.40
2019-03-21T22:28:45.595Z,9.50
2019-03-21T22:31:15.572Z,9.40
2019-03-21T22:33:45.648Z,9.40
2019-03-21T22:36:15.310Z,9.30
2019-03-21T22:38:46.341Z,9.30
2019-03-21T22:41:15.931Z,9.30
2019-03-21T22:43:45.918Z,9.20
2019-03-21T22:46:16.566Z,9.20
2019-03-21T22:48:46.373Z,9.20
2019-03-21T22:51:16.084Z,9.20
2019-03-21T22:53:46.035Z,9.20
2019-03-21T22:56:15.887Z,9.10
2019-03-21T22:58:45.777Z,9.10
2019-03-21T23:01:16.064Z,9.10
2019-03-21T23:03:45.668Z,9.10
2019-03-21T23:06:16.638Z,9.00
2019-03-21T23:08:46.163Z,8.90
2019-03-21T23:11:16.016Z,8.90
2019-03-21T23:13:45.876Z,8.90
2019-03-21T23:16:16.144Z,8.90
2019-03-21T23:18:45.949Z,8.70
2019-03-21T23:21:16.323Z,8.70
2019-03-21T23:23:46.820Z,8.70
2019-03-21T23:26:16.424Z,8.70
2019-03-21T23:28:47.165Z,8.70
2019-03-21T23:31:17.308Z,8.60
2019-03-21T23:33:48.102Z,8.60
2019-03-21T23:36:18.753Z,8.50
2019-03-21T23:38:48.308Z,8.50
2019-03-21T23:41:21.759Z,8.50
2019-03-21T23:43:51.342Z,8.40
2019-03-21T23:46:20.904Z,8.30
2019-03-21T23:48:50.828Z,8.20
2019-03-21T23:51:21.716Z,8.30
2019-03-21T23:53:51.536Z,8.30
2019-03-21T23:56:25.009Z,8.30
2019-03-21T23:58:54.716Z,8.20
